sensor_id;sensor_type;location;lat;lon;timestamp;P1;durP1;ratioP1;P2;durP2;ratioP2
77018;SDS011;66044;53.142;17.962;2023-06-26T00:02:12;9.20;;;4.00;;
77018;SDS011;66044;53.142;17.962;2023-06-26T00:04:41;8.60;;;4.10;;
77018;SDS011;66044;53.142;17.962;2023-06-26T00:07:08;8.10;;;3.70;;
77018;SDS011;66044;53.142;17.962;2023-06-26T00:09:35;8.30;;;3.70;;
77018;SDS011;66044;53.142;17.962;2023-06-26T00:12:02;8.90;;;4.30;;
77018;SDS011;66044;53.142;17.962;2023-06-26T00:14:29;11.20;;;3.40;;
77018;SDS011;66044;53.142;17.962;2023-06-26T00:16:56;7.60;;;3.50;;
77018;SDS011;66044;53.142;17.962;2023-06-26T00:19:22;7.70;;;3.60;;
77018;SDS011;66044;53.142;17.962;2023-06-26T00:21:49;7.60;;;3.90;;
77018;SDS011;66044;53.142;17.962;2023-06-26T00:24:15;7.40;;;3.70;;
77018;SDS011;66044;53.142;17.962;2023-06-26T00:26:43;8.60;;;4.10;;
77018;SDS011;66044;53.142;17.962;2023-06-26T00:29:14;8.00;;;3.70;;
77018;SDS011;66044;53.142;17.962;2023-06-26T00:31:40;8.50;;;4.10;;
77018;SDS011;66044;53.142;17.962;2023-06-26T00:34:07;7.90;;;3.90;;
77018;SDS011;66044;53.142;17.962;2023-06-26T00:36:33;7.90;;;3.60;;
77018;SDS011;66044;53.142;17.962;2023-06-26T00:39:00;8.90;;;4.10;;
77018;SDS011;66044;53.142;17.962;2023-06-26T00:41:26;7.50;;;3.70;;
77018;SDS011;66044;53.142;17.962;2023-06-26T00:43:52;7.20;;;3.50;;
77018;SDS011;66044;53.142;17.962;2023-06-26T00:46:19;8.70;;;3.80;;
77018;SDS011;66044;53.142;17.962;2023-06-26T00:48:45;7.50;;;3.60;;
77018;SDS011;66044;53.142;17.962;2023-06-26T00:51:14;7.80;;;3.80;;
77018;SDS011;66044;53.142;17.962;2023-06-26T00:53:41;7.10;;;3.30;;
77018;SDS011;66044;53.142;17.962;2023-06-26T00:56:08;6.80;;;3.40;;
77018;SDS011;66044;53.142;17.962;2023-06-26T00:58:35;7.50;;;3.40;;
77018;SDS011;66044;53.142;17.962;2023-06-26T01:01:02;7.90;;;3.70;;
77018;SDS011;66044;53.142;17.962;2023-06-26T01:03:29;8.10;;;3.80;;
77018;SDS011;66044;53.142;17.962;2023-06-26T01:05:56;8.00;;;3.40;;
77018;SDS011;66044;53.142;17.962;2023-06-26T01:08:25;6.90;;;3.20;;
77018;SDS011;66044;53.142;17.962;2023-06-26T01:10:53;8.40;;;3.30;;
77018;SDS011;66044;53.142;17.962;2023-06-26T01:13:20;6.50;;;3.00;;
77018;SDS011;66044;53.142;17.962;2023-06-26T01:15:47;7.30;;;3.50;;
77018;SDS011;66044;53.142;17.962;2023-06-26T01:18:15;7.10;;;3.20;;
77018;SDS011;66044;53.142;17.962;2023-06-26T01:20:42;6.30;;;3.00;;
77018;SDS011;66044;53.142;17.962;2023-06-26T01:28:38;7.40;;;3.60;;
77018;SDS011;66044;53.142;17.962;2023-06-26T01:31:07;7.80;;;3.70;;
77018;SDS011;66044;53.142;17.962;2023-06-26T01:33:34;7.00;;;3.40;;
77018;SDS011;66044;53.142;17.962;2023-06-26T01:36:02;8.10;;;3.40;;
77018;SDS011;66044;53.142;17.962;2023-06-26T01:38:29;8.30;;;3.60;;
77018;SDS011;66044;53.142;17.962;2023-06-26T01:40:56;7.10;;;3.60;;
77018;SDS011;66044;53.142;17.962;2023-06-26T01:43:27;7.30;;;3.20;;
77018;SDS011;66044;53.142;17.962;2023-06-26T01:46:06;6.80;;;3.30;;
77018;SDS011;66044;53.142;17.962;2023-06-26T01:48:50;7.10;;;3.50;;
77018;SDS011;66044;53.142;17.962;2023-06-26T01:51:25;7.60;;;3.70;;
77018;SDS011;66044;53.142;17.962;2023-06-26T01:53:56;8.60;;;3.60;;
77018;SDS011;66044;53.142;17.962;2023-06-26T01:56:25;6.90;;;3.60;;
77018;SDS011;66044;53.142;17.962;2023-06-26T01:58:54;7.00;;;3.20;;
77018;SDS011;66044;53.142;17.962;2023-06-26T02:01:21;7.60;;;3.40;;
77018;SDS011;66044;53.142;17.962;2023-06-26T02:03:48;9.60;;;3.30;;
77018;SDS011;66044;53.142;17.962;2023-06-26T02:06:15;6.20;;;3.10;;
77018;SDS011;66044;53.142;17.962;2023-06-26T02:08:41;8.80;;;3.90;;
77018;SDS011;66044;53.142;17.962;2023-06-26T02:11:08;6.60;;;3.20;;
77018;SDS011;66044;53.142;17.962;2023-06-26T02:13:34;7.30;;;3.50;;
77018;SDS011;66044;53.142;17.962;2023-06-26T02:16:00;7.50;;;3.60;;
77018;SDS011;66044;53.142;17.962;2023-06-26T02:18:27;8.10;;;3.90;;
77018;SDS011;66044;53.142;17.962;2023-06-26T02:20:53;8.30;;;4.20;;
77018;SDS011;66044;53.142;17.962;2023-06-26T02:23:20;8.30;;;4.30;;
77018;SDS011;66044;53.142;17.962;2023-06-26T02:25:46;7.90;;;3.90;;
77018;SDS011;66044;53.142;17.962;2023-06-26T02:28:13;8.30;;;4.40;;
77018;SDS011;66044;53.142;17.962;2023-06-26T02:30:39;7.30;;;3.80;;
77018;SDS011;66044;53.142;17.962;2023-06-26T02:33:05;7.90;;;3.70;;
77018;SDS011;66044;53.142;17.962;2023-06-26T02:35:32;7.40;;;3.40;;
77018;SDS011;66044;53.142;17.962;2023-06-26T02:37:59;7.50;;;3.70;;
77018;SDS011;66044;53.142;17.962;2023-06-26T02:40:25;7.50;;;3.70;;
77018;SDS011;66044;53.142;17.962;2023-06-26T02:42:52;9.30;;;3.70;;
77018;SDS011;66044;53.142;17.962;2023-06-26T02:45:18;8.30;;;3.70;;
77018;SDS011;66044;53.142;17.962;2023-06-26T02:47:44;9.50;;;4.10;;
77018;SDS011;66044;53.142;17.962;2023-06-26T02:50:11;9.80;;;4.60;;
77018;SDS011;66044;53.142;17.962;2023-06-26T02:52:37;9.20;;;4.20;;
77018;SDS011;66044;53.142;17.962;2023-06-26T02:55:04;9.80;;;4.40;;
77018;SDS011;66044;53.142;17.962;2023-06-26T02:57:31;8.20;;;4.50;;
77018;SDS011;66044;53.142;17.962;2023-06-26T02:59:58;8.10;;;4.00;;
77018;SDS011;66044;53.142;17.962;2023-06-26T03:02:24;8.40;;;4.30;;
77018;SDS011;66044;53.142;17.962;2023-06-26T03:04:50;7.30;;;3.80;;
77018;SDS011;66044;53.142;17.962;2023-06-26T03:07:18;8.80;;;4.10;;
77018;SDS011;66044;53.142;17.962;2023-06-26T03:09:44;7.90;;;4.10;;
77018;SDS011;66044;53.142;17.962;2023-06-26T03:12:10;7.60;;;3.60;;
77018;SDS011;66044;53.142;17.962;2023-06-26T03:14:37;7.00;;;3.50;;
77018;SDS011;66044;53.142;17.962;2023-06-26T03:17:03;8.00;;;3.80;;
77018;SDS011;66044;53.142;17.962;2023-06-26T03:19:32;8.30;;;4.00;;
77018;SDS011;66044;53.142;17.962;2023-06-26T03:21:58;8.50;;;3.30;;
77018;SDS011;66044;53.142;17.962;2023-06-26T03:24:25;7.30;;;3.80;;
77018;SDS011;66044;53.142;17.962;2023-06-26T03:26:51;8.10;;;3.80;;
77018;SDS011;66044;53.142;17.962;2023-06-26T03:29:18;8.60;;;4.30;;
77018;SDS011;66044;53.142;17.962;2023-06-26T03:31:44;8.70;;;4.10;;
77018;SDS011;66044;53.142;17.962;2023-06-26T03:34:10;7.70;;;4.10;;
77018;SDS011;66044;53.142;17.962;2023-06-26T03:36:37;8.10;;;4.00;;
77018;SDS011;66044;53.142;17.962;2023-06-26T03:39:03;8.00;;;4.10;;
77018;SDS011;66044;53.142;17.962;2023-06-26T03:41:30;8.00;;;4.10;;
77018;SDS011;66044;53.142;17.962;2023-06-26T03:43:56;10.50;;;4.50;;
77018;SDS011;66044;53.142;17.962;2023-06-26T03:46:23;7.90;;;4.00;;
77018;SDS011;66044;53.142;17.962;2023-06-26T03:48:49;8.00;;;3.90;;
77018;SDS011;66044;53.142;17.962;2023-06-26T03:51:16;8.10;;;4.10;;
77018;SDS011;66044;53.142;17.962;2023-06-26T03:53:42;12.10;;;4.50;;
77018;SDS011;66044;53.142;17.962;2023-06-26T03:56:08;8.90;;;4.80;;
77018;SDS011;66044;53.142;17.962;2023-06-26T03:58:35;9.30;;;4.60;;
77018;SDS011;66044;53.142;17.962;2023-06-26T04:01:01;8.20;;;5.00;;
77018;SDS011;66044;53.142;17.962;2023-06-26T04:03:28;8.70;;;4.60;;
77018;SDS011;66044;53.142;17.962;2023-06-26T04:05:54;8.20;;;4.70;;
77018;SDS011;66044;53.142;17.962;2023-06-26T04:08:23;8.80;;;4.60;;
77018;SDS011;66044;53.142;17.962;2023-06-26T04:10:52;9.20;;;4.40;;
77018;SDS011;66044;53.142;17.962;2023-06-26T04:13:19;9.00;;;4.00;;
77018;SDS011;66044;53.142;17.962;2023-06-26T04:15:46;7.70;;;4.00;;
77018;SDS011;66044;53.142;17.962;2023-06-26T04:18:13;7.70;;;4.10;;
77018;SDS011;66044;53.142;17.962;2023-06-26T04:20:39;7.10;;;4.00;;
77018;SDS011;66044;53.142;17.962;2023-06-26T04:23:08;7.40;;;4.00;;
77018;SDS011;66044;53.142;17.962;2023-06-26T04:25:34;7.80;;;3.80;;
77018;SDS011;66044;53.142;17.962;2023-06-26T04:28:00;8.60;;;4.00;;
77018;SDS011;66044;53.142;17.962;2023-06-26T04:30:27;8.30;;;4.60;;
77018;SDS011;66044;53.142;17.962;2023-06-26T04:32:53;6.60;;;3.70;;
77018;SDS011;66044;53.142;17.962;2023-06-26T04:35:20;7.80;;;3.80;;
77018;SDS011;66044;53.142;17.962;2023-06-26T04:37:47;7.20;;;3.40;;
77018;SDS011;66044;53.142;17.962;2023-06-26T04:40:13;8.20;;;3.90;;
77018;SDS011;66044;53.142;17.962;2023-06-26T04:42:40;7.90;;;4.00;;
77018;SDS011;66044;53.142;17.962;2023-06-26T04:45:07;7.20;;;3.60;;
77018;SDS011;66044;53.142;17.962;2023-06-26T04:47:34;7.70;;;3.90;;
77018;SDS011;66044;53.142;17.962;2023-06-26T04:50:00;6.80;;;3.60;;
77018;SDS011;66044;53.142;17.962;2023-06-26T04:52:26;7.70;;;3.50;;
77018;SDS011;66044;53.142;17.962;2023-06-26T04:54:53;7.80;;;3.60;;
77018;SDS011;66044;53.142;17.962;2023-06-26T04:57:19;7.50;;;3.90;;
77018;SDS011;66044;53.142;17.962;2023-06-26T04:59:46;6.80;;;3.40;;
77018;SDS011;66044;53.142;17.962;2023-06-26T05:02:12;7.10;;;3.40;;
77018;SDS011;66044;53.142;17.962;2023-06-26T05:04:41;7.10;;;3.10;;
77018;SDS011;66044;53.142;17.962;2023-06-26T05:07:08;6.90;;;3.30;;
77018;SDS011;66044;53.142;17.962;2023-06-26T05:09:35;6.60;;;2.70;;
77018;SDS011;66044;53.142;17.962;2023-06-26T05:12:01;6.90;;;2.90;;
77018;SDS011;66044;53.142;17.962;2023-06-26T05:14:29;6.10;;;2.80;;
77018;SDS011;66044;53.142;17.962;2023-06-26T05:16:55;6.50;;;3.00;;
77018;SDS011;66044;53.142;17.962;2023-06-26T05:19:21;6.70;;;3.10;;
77018;SDS011;66044;53.142;17.962;2023-06-26T05:21:48;7.10;;;3.00;;
77018;SDS011;66044;53.142;17.962;2023-06-26T05:24:16;6.60;;;3.00;;
77018;SDS011;66044;53.142;17.962;2023-06-26T05:26:45;6.90;;;2.80;;
77018;SDS011;66044;53.142;17.962;2023-06-26T05:29:12;6.80;;;3.00;;
77018;SDS011;66044;53.142;17.962;2023-06-26T05:31:40;8.00;;;3.00;;
77018;SDS011;66044;53.142;17.962;2023-06-26T05:34:07;7.20;;;2.80;;
77018;SDS011;66044;53.142;17.962;2023-06-26T05:36:36;7.10;;;3.00;;
77018;SDS011;66044;53.142;17.962;2023-06-26T05:39:04;6.90;;;2.70;;
77018;SDS011;66044;53.142;17.962;2023-06-26T05:41:32;6.90;;;3.10;;
77018;SDS011;66044;53.142;17.962;2023-06-26T05:43:58;8.30;;;3.00;;
77018;SDS011;66044;53.142;17.962;2023-06-26T05:46:25;6.10;;;2.60;;
77018;SDS011;66044;53.142;17.962;2023-06-26T05:48:51;6.60;;;2.90;;
77018;SDS011;66044;53.142;17.962;2023-06-26T05:51:18;6.40;;;2.30;;
77018;SDS011;66044;53.142;17.962;2023-06-26T05:53:45;6.00;;;3.00;;
77018;SDS011;66044;53.142;17.962;2023-06-26T05:56:11;5.70;;;2.50;;
77018;SDS011;66044;53.142;17.962;2023-06-26T05:58:38;6.10;;;2.40;;
77018;SDS011;66044;53.142;17.962;2023-06-26T06:01:05;6.20;;;2.80;;
77018;SDS011;66044;53.142;17.962;2023-06-26T06:03:32;6.30;;;2.80;;
77018;SDS011;66044;53.142;17.962;2023-06-26T06:05:58;4.90;;;2.30;;
77018;SDS011;66044;53.142;17.962;2023-06-26T06:08:25;6.70;;;2.70;;
77018;SDS011;66044;53.142;17.962;2023-06-26T06:10:51;7.80;;;2.90;;
77018;SDS011;66044;53.142;17.962;2023-06-26T06:13:18;6.20;;;2.40;;
77018;SDS011;66044;53.142;17.962;2023-06-26T06:15:44;6.40;;;2.30;;
77018;SDS011;66044;53.142;17.962;2023-06-26T06:18:10;6.30;;;2.80;;
77018;SDS011;66044;53.142;17.962;2023-06-26T06:20:37;8.00;;;3.20;;
77018;SDS011;66044;53.142;17.962;2023-06-26T06:23:04;6.60;;;2.40;;
77018;SDS011;66044;53.142;17.962;2023-06-26T06:25:32;5.70;;;2.70;;
77018;SDS011;66044;53.142;17.962;2023-06-26T06:27:58;5.90;;;2.60;;
77018;SDS011;66044;53.142;17.962;2023-06-26T06:30:25;5.30;;;2.60;;
77018;SDS011;66044;53.142;17.962;2023-06-26T06:32:51;5.80;;;2.40;;
77018;SDS011;66044;53.142;17.962;2023-06-26T06:35:19;5.90;;;2.80;;
77018;SDS011;66044;53.142;17.962;2023-06-26T06:37:45;5.80;;;2.40;;
77018;SDS011;66044;53.142;17.962;2023-06-26T06:40:12;5.60;;;2.60;;
77018;SDS011;66044;53.142;17.962;2023-06-26T06:42:38;7.20;;;2.60;;
77018;SDS011;66044;53.142;17.962;2023-06-26T06:45:05;7.00;;;2.80;;
77018;SDS011;66044;53.142;17.962;2023-06-26T06:47:32;6.40;;;3.10;;
77018;SDS011;66044;53.142;17.962;2023-06-26T06:50:01;7.20;;;3.00;;
77018;SDS011;66044;53.142;17.962;2023-06-26T06:52:37;6.30;;;2.90;;
77018;SDS011;66044;53.142;17.962;2023-06-26T06:55:06;6.80;;;3.30;;
77018;SDS011;66044;53.142;17.962;2023-06-26T06:57:35;6.40;;;3.80;;
77018;SDS011;66044;53.142;17.962;2023-06-26T07:00:05;7.40;;;3.60;;
77018;SDS011;66044;53.142;17.962;2023-06-26T07:02:37;5.90;;;3.20;;
77018;SDS011;66044;53.142;17.962;2023-06-26T07:05:05;8.40;;;3.50;;
77018;SDS011;66044;53.142;17.962;2023-06-26T07:07:32;6.10;;;3.50;;
77018;SDS011;66044;53.142;17.962;2023-06-26T07:10:01;6.30;;;3.90;;
77018;SDS011;66044;53.142;17.962;2023-06-26T07:12:29;6.40;;;3.70;;
77018;SDS011;66044;53.142;17.962;2023-06-26T07:14:56;6.50;;;3.90;;
77018;SDS011;66044;53.142;17.962;2023-06-26T07:17:23;6.80;;;3.90;;
77018;SDS011;66044;53.142;17.962;2023-06-26T07:19:50;7.10;;;4.40;;
77018;SDS011;66044;53.142;17.962;2023-06-26T07:22:16;6.70;;;3.70;;
77018;SDS011;66044;53.142;17.962;2023-06-26T07:24:45;6.90;;;3.30;;
77018;SDS011;66044;53.142;17.962;2023-06-26T07:27:11;6.10;;;3.70;;
77018;SDS011;66044;53.142;17.962;2023-06-26T07:29:37;5.90;;;3.40;;
77018;SDS011;66044;53.142;17.962;2023-06-26T07:32:04;6.00;;;2.90;;
77018;SDS011;66044;53.142;17.962;2023-06-26T07:34:31;7.00;;;2.70;;
77018;SDS011;66044;53.142;17.962;2023-06-26T07:36:57;6.70;;;2.60;;
77018;SDS011;66044;53.142;17.962;2023-06-26T07:39:24;9.60;;;2.80;;
77018;SDS011;66044;53.142;17.962;2023-06-26T07:41:50;6.50;;;2.70;;
77018;SDS011;66044;53.142;17.962;2023-06-26T07:44:17;6.70;;;2.50;;
77018;SDS011;66044;53.142;17.962;2023-06-26T07:46:43;6.50;;;2.60;;
77018;SDS011;66044;53.142;17.962;2023-06-26T07:49:13;7.00;;;2.80;;
77018;SDS011;66044;53.142;17.962;2023-06-26T07:51:40;7.50;;;2.90;;
77018;SDS011;66044;53.142;17.962;2023-06-26T07:54:06;7.10;;;3.20;;
77018;SDS011;66044;53.142;17.962;2023-06-26T07:57:16;7.10;;;2.80;;
77018;SDS011;66044;53.142;17.962;2023-06-26T07:59:24;6.70;;;2.60;;
77018;SDS011;66044;53.142;17.962;2023-06-26T08:01:52;6.10;;;2.50;;
77018;SDS011;66044;53.142;17.962;2023-06-26T08:04:20;6.50;;;3.00;;
77018;SDS011;66044;53.142;17.962;2023-06-26T08:06:52;7.10;;;3.50;;
77018;SDS011;66044;53.142;17.962;2023-06-26T08:09:21;6.90;;;3.10;;
77018;SDS011;66044;53.142;17.962;2023-06-26T08:11:50;6.30;;;2.90;;
77018;SDS011;66044;53.142;17.962;2023-06-26T08:14:16;7.20;;;3.20;;
77018;SDS011;66044;53.142;17.962;2023-06-26T08:16:43;6.70;;;2.90;;
77018;SDS011;66044;53.142;17.962;2023-06-26T08:19:11;7.60;;;3.10;;
77018;SDS011;66044;53.142;17.962;2023-06-26T08:21:39;7.00;;;3.40;;
77018;SDS011;66044;53.142;17.962;2023-06-26T08:24:06;6.70;;;2.70;;
77018;SDS011;66044;53.142;17.962;2023-06-26T08:26:33;6.70;;;3.10;;
77018;SDS011;66044;53.142;17.962;2023-06-26T08:29:00;7.80;;;3.10;;
77018;SDS011;66044;53.142;17.962;2023-06-26T08:31:27;6.60;;;3.00;;
77018;SDS011;66044;53.142;17.962;2023-06-26T08:33:53;7.00;;;2.90;;
77018;SDS011;66044;53.142;17.962;2023-06-26T08:36:20;8.70;;;3.20;;
77018;SDS011;66044;53.142;17.962;2023-06-26T08:38:46;8.10;;;3.30;;
77018;SDS011;66044;53.142;17.962;2023-06-26T08:41:13;9.30;;;3.40;;
77018;SDS011;66044;53.142;17.962;2023-06-26T08:43:39;7.90;;;3.00;;
77018;SDS011;66044;53.142;17.962;2023-06-26T08:46:07;8.00;;;3.30;;
77018;SDS011;66044;53.142;17.962;2023-06-26T08:48:34;6.90;;;3.20;;
77018;SDS011;66044;53.142;17.962;2023-06-26T08:51:05;6.90;;;3.00;;
77018;SDS011;66044;53.142;17.962;2023-06-26T08:53:39;7.60;;;3.40;;
77018;SDS011;66044;53.142;17.962;2023-06-26T08:56:13;7.60;;;3.40;;
77018;SDS011;66044;53.142;17.962;2023-06-26T08:58:44;6.90;;;3.30;;
77018;SDS011;66044;53.142;17.962;2023-06-26T09:01:11;10.10;;;3.60;;
77018;SDS011;66044;53.142;17.962;2023-06-26T09:03:39;8.30;;;3.10;;
77018;SDS011;66044;53.142;17.962;2023-06-26T09:06:07;7.60;;;2.90;;
77018;SDS011;66044;53.142;17.962;2023-06-26T09:08:34;9.20;;;3.20;;
77018;SDS011;66044;53.142;17.962;2023-06-26T09:11:01;6.60;;;3.20;;
77018;SDS011;66044;53.142;17.962;2023-06-26T09:13:30;7.70;;;3.10;;
77018;SDS011;66044;53.142;17.962;2023-06-26T09:15:57;8.50;;;3.30;;
77018;SDS011;66044;53.142;17.962;2023-06-26T09:18:24;7.50;;;3.20;;
77018;SDS011;66044;53.142;17.962;2023-06-26T09:20:51;7.30;;;3.70;;
77018;SDS011;66044;53.142;17.962;2023-06-26T09:23:17;7.90;;;2.90;;
77018;SDS011;66044;53.142;17.962;2023-06-26T09:25:46;6.50;;;3.30;;
77018;SDS011;66044;53.142;17.962;2023-06-26T09:28:13;6.60;;;3.00;;
77018;SDS011;66044;53.142;17.962;2023-06-26T09:30:41;6.30;;;3.10;;
77018;SDS011;66044;53.142;17.962;2023-06-26T09:33:17;10.20;;;3.10;;
77018;SDS011;66044;53.142;17.962;2023-06-26T09:35:45;7.10;;;3.30;;
77018;SDS011;66044;53.142;17.962;2023-06-26T09:38:13;7.30;;;3.00;;
77018;SDS011;66044;53.142;17.962;2023-06-26T09:40:41;7.70;;;3.00;;
77018;SDS011;66044;53.142;17.962;2023-06-26T09:43:08;6.80;;;3.00;;
77018;SDS011;66044;53.142;17.962;2023-06-26T09:45:39;6.50;;;2.60;;
77018;SDS011;66044;53.142;17.962;2023-06-26T09:48:06;7.60;;;3.10;;
77018;SDS011;66044;53.142;17.962;2023-06-26T09:50:36;6.30;;;2.80;;
77018;SDS011;66044;53.142;17.962;2023-06-26T09:53:08;7.10;;;2.70;;
77018;SDS011;66044;53.142;17.962;2023-06-26T09:55:40;5.90;;;3.00;;
77018;SDS011;66044;53.142;17.962;2023-06-26T09:58:10;7.40;;;2.90;;
77018;SDS011;66044;53.142;17.962;2023-06-26T10:00:41;7.30;;;3.10;;
77018;SDS011;66044;53.142;17.962;2023-06-26T10:03:11;8.20;;;2.80;;
77018;SDS011;66044;53.142;17.962;2023-06-26T10:05:41;7.50;;;2.90;;
77018;SDS011;66044;53.142;17.962;2023-06-26T10:08:07;8.30;;;3.10;;
77018;SDS011;66044;53.142;17.962;2023-06-26T10:10:35;8.20;;;2.90;;
77018;SDS011;66044;53.142;17.962;2023-06-26T10:13:08;6.20;;;2.80;;
77018;SDS011;66044;53.142;17.962;2023-06-26T10:15:41;6.60;;;2.60;;
77018;SDS011;66044;53.142;17.962;2023-06-26T10:18:12;7.30;;;3.20;;
77018;SDS011;66044;53.142;17.962;2023-06-26T10:20:41;6.60;;;2.50;;
77018;SDS011;66044;53.142;17.962;2023-06-26T10:23:10;8.80;;;3.30;;
77018;SDS011;66044;53.142;17.962;2023-06-26T10:25:38;7.80;;;3.10;;
77018;SDS011;66044;53.142;17.962;2023-06-26T10:28:08;6.90;;;2.90;;
77018;SDS011;66044;53.142;17.962;2023-06-26T10:30:37;6.40;;;3.30;;
77018;SDS011;66044;53.142;17.962;2023-06-26T10:33:05;6.70;;;3.00;;
77018;SDS011;66044;53.142;17.962;2023-06-26T10:35:34;6.30;;;2.80;;
77018;SDS011;66044;53.142;17.962;2023-06-26T10:38:08;6.40;;;2.90;;
77018;SDS011;66044;53.142;17.962;2023-06-26T10:40:45;7.10;;;3.20;;
77018;SDS011;66044;53.142;17.962;2023-06-26T10:43:13;7.20;;;3.00;;
77018;SDS011;66044;53.142;17.962;2023-06-26T10:45:47;7.00;;;3.20;;
77018;SDS011;66044;53.142;17.962;2023-06-26T10:48:21;6.80;;;3.10;;
77018;SDS011;66044;53.142;17.962;2023-06-26T10:50:49;8.00;;;3.40;;
77018;SDS011;66044;53.142;17.962;2023-06-26T10:56:03;7.10;;;3.60;;
77018;SDS011;66044;53.142;17.962;2023-06-26T11:01:23;6.80;;;3.40;;
77018;SDS011;66044;53.142;17.962;2023-06-26T11:06:30;7.50;;;3.20;;
77018;SDS011;66044;53.142;17.962;2023-06-26T11:14:21;6.80;;;3.20;;
77018;SDS011;66044;53.142;17.962;2023-06-26T11:16:49;8.10;;;3.70;;
77018;SDS011;66044;53.142;17.962;2023-06-26T11:19:16;8.10;;;3.40;;
77018;SDS011;66044;53.142;17.962;2023-06-26T11:21:44;7.40;;;3.30;;
77018;SDS011;66044;53.142;17.962;2023-06-26T11:24:12;6.60;;;3.20;;
77018;SDS011;66044;53.142;17.962;2023-06-26T11:26:39;6.70;;;3.20;;
77018;SDS011;66044;53.142;17.962;2023-06-26T11:29:07;6.60;;;3.20;;
77018;SDS011;66044;53.142;17.962;2023-06-26T11:31:37;6.50;;;2.80;;
77018;SDS011;66044;53.142;17.962;2023-06-26T11:34:08;6.60;;;3.10;;
77018;SDS011;66044;53.142;17.962;2023-06-26T11:36:39;7.20;;;3.30;;
77018;SDS011;66044;53.142;17.962;2023-06-26T11:39:08;7.00;;;3.30;;
77018;SDS011;66044;53.142;17.962;2023-06-26T11:41:35;7.70;;;3.10;;
77018;SDS011;66044;53.142;17.962;2023-06-26T11:44:06;6.00;;;2.90;;
77018;SDS011;66044;53.142;17.962;2023-06-26T11:46:35;6.70;;;3.00;;
77018;SDS011;66044;53.142;17.962;2023-06-26T11:49:03;6.50;;;3.00;;
77018;SDS011;66044;53.142;17.962;2023-06-26T11:51:31;7.80;;;3.40;;
77018;SDS011;66044;53.142;17.962;2023-06-26T11:54:00;7.20;;;2.80;;
77018;SDS011;66044;53.142;17.962;2023-06-26T11:56:29;7.10;;;3.30;;
77018;SDS011;66044;53.142;17.962;2023-06-26T11:58:56;6.70;;;3.10;;
77018;SDS011;66044;53.142;17.962;2023-06-26T12:01:24;7.20;;;3.30;;
77018;SDS011;66044;53.142;17.962;2023-06-26T12:03:53;6.50;;;2.90;;
77018;SDS011;66044;53.142;17.962;2023-06-26T12:06:27;7.50;;;2.90;;
77018;SDS011;66044;53.142;17.962;2023-06-26T12:08:55;6.80;;;2.80;;
77018;SDS011;66044;53.142;17.962;2023-06-26T12:11:25;6.00;;;2.70;;
77018;SDS011;66044;53.142;17.962;2023-06-26T12:13:52;6.10;;;2.50;;
77018;SDS011;66044;53.142;17.962;2023-06-26T12:16:19;6.30;;;2.40;;
77018;SDS011;66044;53.142;17.962;2023-06-26T12:18:46;6.30;;;2.40;;
77018;SDS011;66044;53.142;17.962;2023-06-26T12:24:14;6.50;;;2.50;;
77018;SDS011;66044;53.142;17.962;2023-06-26T12:26:43;5.80;;;2.60;;
77018;SDS011;66044;53.142;17.962;2023-06-26T12:29:14;6.70;;;2.80;;
77018;SDS011;66044;53.142;17.962;2023-06-26T12:31:44;7.60;;;3.00;;
77018;SDS011;66044;53.142;17.962;2023-06-26T12:34:13;6.30;;;2.60;;
77018;SDS011;66044;53.142;17.962;2023-06-26T12:36:44;5.90;;;2.70;;
77018;SDS011;66044;53.142;17.962;2023-06-26T12:39:18;7.30;;;2.90;;
77018;SDS011;66044;53.142;17.962;2023-06-26T12:41:54;6.20;;;2.80;;
77018;SDS011;66044;53.142;17.962;2023-06-26T12:44:29;6.80;;;2.70;;
77018;SDS011;66044;53.142;17.962;2023-06-26T12:46:57;5.60;;;2.30;;
77018;SDS011;66044;53.142;17.962;2023-06-26T12:49:32;5.90;;;2.10;;
77018;SDS011;66044;53.142;17.962;2023-06-26T12:52:03;6.00;;;2.20;;
77018;SDS011;66044;53.142;17.962;2023-06-26T12:54:31;6.90;;;2.70;;
77018;SDS011;66044;53.142;17.962;2023-06-26T12:56:59;7.10;;;2.30;;
77018;SDS011;66044;53.142;17.962;2023-06-26T12:59:26;5.30;;;1.80;;
77018;SDS011;66044;53.142;17.962;2023-06-26T13:01:52;5.70;;;2.20;;
77018;SDS011;66044;53.142;17.962;2023-06-26T13:04:19;5.50;;;2.00;;
77018;SDS011;66044;53.142;17.962;2023-06-26T13:06:45;5.60;;;2.10;;
77018;SDS011;66044;53.142;17.962;2023-06-26T13:09:12;7.60;;;2.50;;
77018;SDS011;66044;53.142;17.962;2023-06-26T13:11:38;6.00;;;2.40;;
77018;SDS011;66044;53.142;17.962;2023-06-26T13:14:05;6.10;;;2.40;;
77018;SDS011;66044;53.142;17.962;2023-06-26T13:16:31;5.70;;;2.40;;
77018;SDS011;66044;53.142;17.962;2023-06-26T13:18:58;5.80;;;2.20;;
77018;SDS011;66044;53.142;17.962;2023-06-26T13:21:26;6.30;;;2.10;;
77018;SDS011;66044;53.142;17.962;2023-06-26T13:23:53;5.90;;;2.10;;
77018;SDS011;66044;53.142;17.962;2023-06-26T13:26:19;7.10;;;2.70;;
77018;SDS011;66044;53.142;17.962;2023-06-26T13:28:48;6.30;;;2.30;;
77018;SDS011;66044;53.142;17.962;2023-06-26T13:31:15;5.60;;;2.40;;
77018;SDS011;66044;53.142;17.962;2023-06-26T13:33:42;5.80;;;2.50;;
77018;SDS011;66044;53.142;17.962;2023-06-26T13:36:08;7.40;;;2.40;;
77018;SDS011;66044;53.142;17.962;2023-06-26T13:38:35;5.80;;;2.30;;
77018;SDS011;66044;53.142;17.962;2023-06-26T13:41:02;6.30;;;2.80;;
77018;SDS011;66044;53.142;17.962;2023-06-26T13:43:28;6.20;;;2.30;;
77018;SDS011;66044;53.142;17.962;2023-06-26T13:45:56;5.50;;;2.10;;
77018;SDS011;66044;53.142;17.962;2023-06-26T13:48:23;5.60;;;2.00;;
77018;SDS011;66044;53.142;17.962;2023-06-26T13:50:52;6.20;;;2.70;;
77018;SDS011;66044;53.142;17.962;2023-06-26T13:53:19;7.20;;;2.90;;
77018;SDS011;66044;53.142;17.962;2023-06-26T13:55:46;5.80;;;2.50;;
77018;SDS011;66044;53.142;17.962;2023-06-26T13:58:12;5.60;;;2.30;;
77018;SDS011;66044;53.142;17.962;2023-06-26T14:00:39;7.40;;;2.50;;
77018;SDS011;66044;53.142;17.962;2023-06-26T14:03:06;5.70;;;2.40;;
77018;SDS011;66044;53.142;17.962;2023-06-26T14:05:34;6.80;;;2.20;;
77018;SDS011;66044;53.142;17.962;2023-06-26T14:08:03;5.60;;;2.30;;
77018;SDS011;66044;53.142;17.962;2023-06-26T14:10:31;6.00;;;1.90;;
77018;SDS011;66044;53.142;17.962;2023-06-26T14:13:02;5.60;;;2.00;;
77018;SDS011;66044;53.142;17.962;2023-06-26T14:15:30;6.60;;;2.30;;
77018;SDS011;66044;53.142;17.962;2023-06-26T14:17:56;5.70;;;2.10;;
77018;SDS011;66044;53.142;17.962;2023-06-26T14:20:23;7.00;;;2.20;;
77018;SDS011;66044;53.142;17.962;2023-06-26T14:22:50;6.20;;;2.00;;
77018;SDS011;66044;53.142;17.962;2023-06-26T14:25:17;5.00;;;1.80;;
77018;SDS011;66044;53.142;17.962;2023-06-26T14:27:43;7.20;;;1.90;;
77018;SDS011;66044;53.142;17.962;2023-06-26T14:30:10;5.50;;;1.80;;
77018;SDS011;66044;53.142;17.962;2023-06-26T14:32:37;5.60;;;1.90;;
77018;SDS011;66044;53.142;17.962;2023-06-26T14:35:03;5.20;;;1.70;;
77018;SDS011;66044;53.142;17.962;2023-06-26T14:37:30;5.30;;;1.80;;
77018;SDS011;66044;53.142;17.962;2023-06-26T14:39:57;5.70;;;1.80;;
77018;SDS011;66044;53.142;17.962;2023-06-26T14:42:25;6.20;;;1.90;;
77018;SDS011;66044;53.142;17.962;2023-06-26T14:44:51;5.40;;;1.60;;
77018;SDS011;66044;53.142;17.962;2023-06-26T14:47:18;6.10;;;1.90;;
77018;SDS011;66044;53.142;17.962;2023-06-26T14:49:44;6.10;;;1.80;;
77018;SDS011;66044;53.142;17.962;2023-06-26T14:52:11;5.50;;;1.90;;
77018;SDS011;66044;53.142;17.962;2023-06-26T14:54:37;5.20;;;2.10;;
77018;SDS011;66044;53.142;17.962;2023-06-26T14:57:06;4.80;;;1.70;;
77018;SDS011;66044;53.142;17.962;2023-06-26T14:59:34;5.20;;;1.90;;